createdAt,value
2022-09-24T00:01:54.202Z,7.40
2022-09-24T00:04:25.720Z,7.40
2022-09-24T00:06:54.264Z,7.40
2022-09-24T00:09:23.177Z,7.50
2022-09-24T00:11:52.410Z,7.50
2022-09-24T00:14:22.175Z,7.40
2022-09-24T00:16:50.685Z,7.40
2022-09-24T00:19:19.214Z,7.50
2022-09-24T00:21:47.318Z,7.50
2022-09-24T00:24:37.769Z,7.60
2022-09-24T00:27:06.351Z,7.60
2022-09-24T00:29:36.623Z,7.60
2022-09-24T00:32:06.434Z,7.60
2022-09-24T00:34:34.860Z,7.60
2022-09-24T00:37:02.985Z,7.60
2022-09-24T00:39:33.966Z,7.60
2022-09-24T00:42:02.009Z,7.60
2022-09-24T00:44:53.738Z,7.60
2022-09-24T00:47:29.981Z,7.60
2022-09-24T00:50:06.193Z,7.60
2022-09-24T00:52:35.356Z,7.60
2022-09-24T00:55:03.593Z,7.60
2022-09-24T00:57:32.901Z,7.70
2022-09-24T01:00:02.765Z,7.70
2022-09-24T01:02:32.032Z,7.70
2022-09-24T01:05:00.560Z,7.70
2022-09-24T01:07:28.630Z,7.70
2022-09-24T01:09:56.920Z,7.80
2022-09-24T01:12:31.319Z,7.80
2022-09-24T01:15:11.914Z,8.00
2022-09-24T01:17:47.693Z,8.00
2022-09-24T01:20:38.720Z,7.90
2022-09-24T01:23:28.218Z,7.90
2022-09-24T01:26:11.128Z,7.80
2022-09-24T01:28:52.409Z,7.80
2022-09-24T01:31:28.244Z,7.70
2022-09-24T01:33:59.454Z,7.70
2022-09-24T01:36:29.517Z,7.70
2022-09-24T01:38:59.137Z,7.60
2022-09-24T01:41:29.001Z,7.70
2022-09-24T01:43:59.543Z,7.60
2022-09-24T01:46:29.526Z,7.60
2022-09-24T01:48:58.456Z,7.60
2022-09-24T01:51:29.969Z,7.60
2022-09-24T01:54:02.651Z,7.70
2022-09-24T01:56:38.247Z,7.70
2022-09-24T01:59:11.771Z,7.60
2022-09-24T02:01:46.212Z,7.70
2022-09-24T02:04:17.918Z,7.70
2022-09-24T02:06:52.275Z,7.80
2022-09-24T02:09:31.596Z,7.80
2022-09-24T02:12:03.297Z,7.90
2022-09-24T02:14:37.538Z,7.90
2022-09-24T02:17:08.652Z,7.80
2022-09-24T02:19:39.495Z,7.80
2022-09-24T02:22:09.509Z,7.80
2022-09-24T02:24:46.619Z,7.80
2022-09-24T02:27:14.930Z,7.80
2022-09-24T02:29:44.621Z,7.80
2022-09-24T02:32:18.150Z,7.80
2022-09-24T02:34:48.886Z,7.70
2022-09-24T02:37:17.973Z,7.70
2022-09-24T02:39:46.118Z,7.70
2022-09-24T02:42:16.432Z,7.70
2022-09-24T02:44:44.478Z,7.70
2022-09-24T02:47:14.235Z,7.60
2022-09-24T02:49:42.606Z,7.70
2022-09-24T02:52:10.956Z,7.70
2022-09-24T02:54:39.254Z,7.70
2022-09-24T02:57:07.329Z,7.70
2022-09-24T02:59:35.879Z,7.70
2022-09-24T03:02:04.334Z,7.70
2022-09-24T03:04:33.931Z,7.70
2022-09-24T03:07:02.632Z,7.70
2022-09-24T03:09:31.160Z,7.70
2022-09-24T03:12:00.968Z,7.70
2022-09-24T03:14:29.106Z,7.70
2022-09-24T03:16:57.215Z,7.80
2022-09-24T03:19:25.418Z,7.70
2022-09-24T03:21:54.793Z,7.70
2022-09-24T03:24:22.946Z,7.70
2022-09-24T03:26:51.090Z,7.70
2022-09-24T03:29:39.153Z,7.70
2022-09-24T03:32:06.298Z,7.60
2022-09-24T03:34:34.358Z,7.70
2022-09-24T03:37:03.751Z,7.70
2022-09-24T03:39:31.805Z,7.70
2022-09-24T03:41:59.880Z,7.60
2022-09-24T03:44:28.633Z,7.70
2022-09-24T03:46:56.996Z,7.70
2022-09-24T03:49:25.848Z,7.70
2022-09-24T03:51:53.946Z,7.70
2022-09-24T03:54:23.376Z,7.70
2022-09-24T03:56:51.434Z,7.60
2022-09-24T03:59:19.537Z,7.70
2022-09-24T04:01:47.693Z,7.70
2022-09-24T04:04:16.312Z,7.80
2022-09-24T04:06:44.731Z,7.80
2022-09-24T04:09:12.827Z,7.70
2022-09-24T04:11:43.479Z,7.70
2022-09-24T04:14:11.650Z,7.60
2022-09-24T04:16:40.074Z,7.60
2022-09-24T04:19:08.709Z,7.60
2022-09-24T04:21:36.778Z,7.60
2022-09-24T04:24:05.096Z,7.60
2022-09-24T04:26:33.155Z,7.60
2022-09-24T04:29:02.634Z,7.60
2022-09-24T04:31:32.797Z,7.60
2022-09-24T04:34:01.052Z,7.50
2022-09-24T04:36:29.243Z,7.50
2022-09-24T04:38:58.017Z,7.40
2022-09-24T04:41:26.073Z,7.50
2022-09-24T04:43:54.236Z,7.40
2022-09-24T04:46:23.742Z,7.40
2022-09-24T04:48:53.293Z,7.40
2022-09-24T04:51:22.031Z,7.40
2022-09-24T04:53:50.993Z,7.50
2022-09-24T04:56:19.168Z,7.40
2022-09-24T04:58:51.709Z,7.40
2022-09-24T05:01:20.437Z,7.40
2022-09-24T05:03:50.032Z,7.40
2022-09-24T05:06:18.107Z,7.40
2022-09-24T05:08:46.169Z,7.40
2022-09-24T05:11:14.232Z,7.40
2022-09-24T05:13:42.253Z,7.40
2022-09-24T05:16:10.675Z,7.40
2022-09-24T05:18:38.824Z,7.40
2022-09-24T05:21:08.480Z,7.40
2022-09-24T05:23:36.524Z,7.40
2022-09-24T05:26:22.167Z,7.40
2022-09-24T05:28:50.201Z,7.50
2022-09-24T05:31:18.411Z,7.60
2022-09-24T05:33:46.548Z,7.70
2022-09-24T05:36:16.095Z,7.70
2022-09-24T05:38:44.205Z,7.80
2022-09-24T05:41:12.336Z,7.80
2022-09-24T05:43:41.135Z,7.90
2022-09-24T05:46:09.351Z,8.00
2022-09-24T05:48:37.556Z,8.10
2022-09-24T05:51:06.968Z,8.10
2022-09-24T05:53:36.628Z,8.20
2022-09-24T05:56:04.693Z,8.30
2022-09-24T05:58:33.125Z,8.40
2022-09-24T06:01:01.991Z,8.50
2022-09-24T06:03:31.797Z,8.50
2022-09-24T06:06:02.113Z,8.60
2022-09-24T06:08:32.078Z,8.70
2022-09-24T06:11:02.565Z,8.70
2022-09-24T06:13:31.592Z,8.80
2022-09-24T06:16:02.824Z,8.90
2022-09-24T06:18:31.397Z,9.00
2022-09-24T06:21:03.605Z,9.10
2022-09-24T06:23:32.084Z,9.10
2022-09-24T06:26:01.567Z,9.20
2022-09-24T06:28:30.030Z,9.30
2022-09-24T06:31:00.730Z,9.40
2022-09-24T06:33:30.524Z,9.50
2022-09-24T06:36:02.035Z,9.60
2022-09-24T06:38:30.996Z,9.70
2022-09-24T06:41:03.478Z,9.80
2022-09-24T06:43:32.473Z,9.80
2022-09-24T06:46:01.752Z,9.80
2022-09-24T06:48:31.259Z,9.90
2022-09-24T06:50:59.738Z,10.10
2022-09-24T06:53:27.938Z,10.20
2022-09-24T06:55:59.899Z,10.30
2022-09-24T06:58:29.552Z,10.30
2022-09-24T07:01:02.263Z,10.40
2022-09-24T07:03:32.677Z,10.50
2022-09-24T07:06:02.841Z,10.50
2022-09-24T07:08:31.278Z,10.40
2022-09-24T07:11:00.680Z,10.50
2022-09-24T07:13:30.389Z,10.50
2022-09-24T07:15:58.710Z,10.60
2022-09-24T07:18:28.534Z,10.60
2022-09-24T07:20:57.569Z,10.60
2022-09-24T07:23:27.771Z,10.70
2022-09-24T07:25:57.717Z,10.70
2022-09-24T07:28:26.011Z,10.80
2022-09-24T07:31:01.809Z,10.90
2022-09-24T07:33:32.510Z,10.90
2022-09-24T07:36:05.631Z,10.90
2022-09-24T07:38:35.199Z,10.90
2022-09-24T07:41:04.610Z,10.90
2022-09-24T07:43:33.720Z,11.10
2022-09-24T07:46:03.322Z,11.10
2022-09-24T07:48:31.470Z,11.20
2022-09-24T07:50:59.794Z,11.20
2022-09-24T07:53:28.021Z,11.30
2022-09-24T07:56:00.174Z,11.30
2022-09-24T07:58:28.307Z,11.40
2022-09-24T08:00:59.200Z,11.40
2022-09-24T08:03:29.202Z,11.50
2022-09-24T08:05:58.770Z,11.60
2022-09-24T08:08:26.946Z,11.70
2022-09-24T08:10:55.261Z,11.80
2022-09-24T08:13:27.565Z,11.80
2022-09-24T08:16:00.601Z,11.90
2022-09-24T08:18:32.608Z,11.90
2022-09-24T08:21:04.325Z,11.90
2022-09-24T08:23:33.502Z,11.90
2022-09-24T08:26:01.685Z,11.90
2022-09-24T08:28:29.839Z,12.00
2022-09-24T08:31:00.592Z,12.00
2022-09-24T08:33:32.052Z,12.20
2022-09-24T08:36:01.364Z,12.20
2022-09-24T08:38:29.900Z,12.40
2022-09-24T08:41:06.581Z,12.50
2022-09-24T08:43:44.729Z,12.60
2022-09-24T08:46:36.045Z,12.70
2022-09-24T08:49:08.849Z,12.60
2022-09-24T08:51:42.409Z,12.60
2022-09-24T08:54:14.488Z,12.70
2022-09-24T08:56:46.805Z,12.70
2022-09-24T08:59:27.563Z,12.50
2022-09-24T09:02:06.521Z,12.60
2022-09-24T09:04:47.524Z,12.70
2022-09-24T09:07:22.524Z,12.50
2022-09-24T09:09:55.912Z,12.60
2022-09-24T09:12:28.736Z,12.80
2022-09-24T09:15:04.382Z,12.80
2022-09-24T09:17:45.730Z,12.80
2022-09-24T09:20:19.488Z,12.70
2022-09-24T09:22:50.294Z,12.80
2022-09-24T09:25:22.222Z,13.00
2022-09-24T09:27:54.448Z,12.90
2022-09-24T09:30:22.943Z,13.00
2022-09-24T09:33:15.164Z,12.90
2022-09-24T09:35:52.394Z,13.20
2022-09-24T09:38:26.407Z,13.10
2022-09-24T09:41:03.854Z,13.20
2022-09-24T09:43:32.203Z,13.20
2022-09-24T09:46:12.161Z,13.40
2022-09-24T09:48:46.856Z,13.30
2022-09-24T09:51:23.304Z,13.20
2022-09-24T09:53:59.420Z,13.20
2022-09-24T09:56:30.741Z,13.20
2022-09-24T09:59:09.132Z,13.20
2022-09-24T10:01:40.584Z,13.30
2022-09-24T10:04:29.847Z,13.30
2022-09-24T10:07:10.803Z,13.30
2022-09-24T10:09:43.211Z,13.60
2022-09-24T10:12:17.017Z,13.90
2022-09-24T10:14:58.679Z,14.00
2022-09-24T10:17:35.272Z,14.00
2022-09-24T10:20:08.561Z,14.00
2022-09-24T10:22:41.984Z,14.10
2022-09-24T10:25:20.336Z,14.30
2022-09-24T10:27:48.622Z,14.20
2022-09-24T10:30:35.714Z,14.50
2022-09-24T10:33:08.762Z,14.70
2022-09-24T10:35:39.636Z,14.70
2022-09-24T10:38:20.098Z,14.80
2022-09-24T10:40:49.266Z,15.00
2022-09-24T10:43:19.878Z,15.10
2022-09-24T10:46:08.555Z,15.40
2022-09-24T10:48:44.384Z,15.30
2022-09-24T10:51:29.621Z,15.10
2022-09-24T10:54:19.035Z,15.00
2022-09-24T10:56:51.924Z,14.90
2022-09-24T10:59:34.995Z,15.20
2022-09-24T11:02:32.246Z,15.40
2022-09-24T11:05:03.627Z,15.70
2022-09-24T11:07:55.175Z,15.90
2022-09-24T11:10:35.736Z,15.70
2022-09-24T11:13:11.810Z,15.90
2022-09-24T11:15:58.873Z,15.80
2022-09-24T11:18:41.342Z,15.60
2022-09-24T11:21:20.491Z,15.30
2022-09-24T11:24:02.232Z,15.20
2022-09-24T11:26:41.049Z,15.10
2022-09-24T11:29:49.900Z,15.30
2022-09-24T11:32:23.271Z,15.40
2022-09-24T11:35:08.137Z,15.30
2022-09-24T11:37:52.057Z,15.20
2022-09-24T11:40:44.779Z,15.20
2022-09-24T11:43:32.864Z,15.10
2022-09-24T11:46:17.371Z,15.20
2022-09-24T11:49:07.685Z,15.50
2022-09-24T11:51:48.888Z,15.50
2022-09-24T11:54:23.779Z,15.20
2022-09-24T11:56:57.525Z,15.00
2022-09-24T11:59:35.834Z,15.00
2022-09-24T12:02:13.854Z,15.10
2022-09-24T12:04:52.241Z,15.10
2022-09-24T12:07:24.551Z,15.10
2022-09-24T12:09:58.319Z,15.00
2022-09-24T12:12:30.893Z,15.10
2022-09-24T12:15:03.433Z,15.00
2022-09-24T12:17:37.312Z,15.00
2022-09-24T12:20:10.771Z,15.20
2022-09-24T12:22:44.518Z,15.40
2022-09-24T12:25:16.246Z,15.50
2022-09-24T12:27:46.205Z,15.60
2022-09-24T12:30:47.466Z,15.40
2022-09-24T12:33:19.688Z,15.30
2022-09-24T12:36:05.534Z,15.30
2022-09-24T12:38:37.712Z,15.50
2022-09-24T12:41:24.757Z,15.50
2022-09-24T12:43:59.319Z,15.40
2022-09-24T12:46:32.509Z,15.50
2022-09-24T12:49:01.589Z,15.50
2022-09-24T12:51:37.651Z,15.50
2022-09-24T12:54:21.738Z,15.80
2022-09-24T12:56:50.010Z,15.80
2022-09-24T12:59:26.833Z,15.80
2022-09-24T13:02:07.603Z,15.80
2022-09-24T13:04:37.955Z,15.60
2022-09-24T13:07:28.064Z,15.40
2022-09-24T13:09:57.428Z,15.40
2022-09-24T13:12:33.166Z,15.40
2022-09-24T13:15:04.291Z,15.40
2022-09-24T13:17:35.533Z,15.20
2022-09-24T13:20:08.351Z,15.10
2022-09-24T13:22:37.927Z,15.10
2022-09-24T13:25:24.656Z,15.00
2022-09-24T13:28:04.299Z,15.00
2022-09-24T13:30:39.758Z,15.00
2022-09-24T13:33:24.185Z,14.90
2022-09-24T13:36:04.282Z,14.80
2022-09-24T13:38:36.896Z,14.80
2022-09-24T13:41:23.153Z,14.80
2022-09-24T13:43:55.744Z,14.90
2022-09-24T13:46:25.221Z,15.10
2022-09-24T13:48:58.201Z,14.90
2022-09-24T13:51:34.184Z,14.90
2022-09-24T13:54:13.198Z,14.90
2022-09-24T13:56:56.878Z,14.80
2022-09-24T13:59:28.180Z,14.70
2022-09-24T14:01:57.197Z,14.70
2022-09-24T14:04:27.011Z,14.80
2022-09-24T14:06:59.639Z,14.80
2022-09-24T14:09:31.194Z,14.80
2022-09-24T14:12:00.792Z,14.70
2022-09-24T14:14:30.766Z,14.60
2022-09-24T14:17:09.082Z,14.60
2022-09-24T14:19:38.854Z,14.40
2022-09-24T14:22:13.508Z,14.40
2022-09-24T14:24:45.824Z,14.40
2022-09-24T14:27:22.089Z,14.40
2022-09-24T14:29:58.133Z,14.30
2022-09-24T14:32:30.275Z,14.20
2022-09-24T14:35:01.715Z,14.20
2022-09-24T14:37:33.186Z,14.30
2022-09-24T14:40:05.435Z,14.20
2022-09-24T14:42:41.338Z,14.10
2022-09-24T14:45:11.609Z,14.20
2022-09-24T14:47:45.967Z,14.10
2022-09-24T14:50:35.287Z,14.10
2022-09-24T14:53:14.057Z,14.00
2022-09-24T14:55:49.865Z,14.10
2022-09-24T14:58:34.993Z,14.20
2022-09-24T15:01:14.716Z,14.10
2022-09-24T15:03:45.900Z,14.00
2022-09-24T15:06:27.199Z,14.00
2022-09-24T15:09:01.256Z,13.90
2022-09-24T15:11:34.437Z,13.90
2022-09-24T15:14:15.792Z,13.80
2022-09-24T15:16:46.903Z,13.80
2022-09-24T15:19:19.843Z,13.70
2022-09-24T15:21:50.658Z,13.70
2022-09-24T15:24:19.944Z,13.70
2022-09-24T15:27:02.783Z,13.60
2022-09-24T15:29:34.211Z,13.70
2022-09-24T15:32:13.761Z,13.60
